sensor_id;sensor_type;location;lat;lon;timestamp;P1;durP1;ratioP1;P2;durP2;ratioP2
58412;SDS011;44209;52.952;6.790;2023-05-29T00:01:44;17.83;;;5.00;;
58412;SDS011;44209;52.952;6.790;2023-05-29T00:04:10;20.80;;;4.30;;
58412;SDS011;44209;52.952;6.790;2023-05-29T00:06:37;19.73;;;4.43;;
58412;SDS011;44209;52.952;6.790;2023-05-29T00:09:03;14.80;;;4.13;;
58412;SDS011;44209;52.952;6.790;2023-05-29T00:11:29;15.73;;;4.90;;
58412;SDS011;44209;52.952;6.790;2023-05-29T00:13:55;16.10;;;4.27;;
58412;SDS011;44209;52.952;6.790;2023-05-29T00:16:22;16.63;;;4.50;;
58412;SDS011;44209;52.952;6.790;2023-05-29T00:18:48;17.03;;;4.57;;
58412;SDS011;44209;52.952;6.790;2023-05-29T00:21:15;17.63;;;4.00;;
58412;SDS011;44209;52.952;6.790;2023-05-29T00:23:41;16.63;;;4.17;;
58412;SDS011;44209;52.952;6.790;2023-05-29T00:26:07;16.93;;;4.30;;
58412;SDS011;44209;52.952;6.790;2023-05-29T00:28:33;14.87;;;3.47;;
58412;SDS011;44209;52.952;6.790;2023-05-29T00:31:00;19.87;;;4.17;;
58412;SDS011;44209;52.952;6.790;2023-05-29T00:33:26;19.23;;;4.20;;
58412;SDS011;44209;52.952;6.790;2023-05-29T00:35:52;19.70;;;4.27;;
58412;SDS011;44209;52.952;6.790;2023-05-29T00:38:17;18.80;;;4.30;;
58412;SDS011;44209;52.952;6.790;2023-05-29T00:40:43;14.93;;;3.90;;
58412;SDS011;44209;52.952;6.790;2023-05-29T00:43:09;16.30;;;4.03;;
58412;SDS011;44209;52.952;6.790;2023-05-29T00:45:34;14.30;;;4.03;;
58412;SDS011;44209;52.952;6.790;2023-05-29T00:48:04;17.03;;;4.10;;
58412;SDS011;44209;52.952;6.790;2023-05-29T00:50:32;16.60;;;4.20;;
58412;SDS011;44209;52.952;6.790;2023-05-29T00:52:59;15.10;;;3.90;;
58412;SDS011;44209;52.952;6.790;2023-05-29T00:55:27;15.40;;;3.83;;
58412;SDS011;44209;52.952;6.790;2023-05-29T00:57:54;14.93;;;4.30;;
58412;SDS011;44209;52.952;6.790;2023-05-29T01:00:20;18.33;;;3.90;;
58412;SDS011;44209;52.952;6.790;2023-05-29T01:02:46;17.83;;;4.40;;
58412;SDS011;44209;52.952;6.790;2023-05-29T01:05:13;17.73;;;4.50;;
58412;SDS011;44209;52.952;6.790;2023-05-29T01:07:40;18.80;;;4.57;;
58412;SDS011;44209;52.952;6.790;2023-05-29T01:10:07;13.77;;;3.50;;
58412;SDS011;44209;52.952;6.790;2023-05-29T01:12:50;14.97;;;4.10;;
58412;SDS011;44209;52.952;6.790;2023-05-29T01:16:30;16.37;;;3.90;;
58412;SDS011;44209;52.952;6.790;2023-05-29T01:19:10;15.47;;;3.97;;
58412;SDS011;44209;52.952;6.790;2023-05-29T01:22:18;13.10;;;3.33;;
58412;SDS011;44209;52.952;6.790;2023-05-29T01:25:20;14.97;;;3.47;;
58412;SDS011;44209;52.952;6.790;2023-05-29T01:27:55;13.00;;;3.90;;
58412;SDS011;44209;52.952;6.790;2023-05-29T01:30:25;14.73;;;3.57;;
58412;SDS011;44209;52.952;6.790;2023-05-29T01:32:53;11.97;;;3.53;;
58412;SDS011;44209;52.952;6.790;2023-05-29T01:35:19;15.00;;;4.20;;
58412;SDS011;44209;52.952;6.790;2023-05-29T01:37:45;16.23;;;3.70;;
58412;SDS011;44209;52.952;6.790;2023-05-29T01:40:11;18.83;;;4.20;;
58412;SDS011;44209;52.952;6.790;2023-05-29T01:42:37;18.47;;;4.50;;
58412;SDS011;44209;52.952;6.790;2023-05-29T01:45:02;16.70;;;3.73;;
58412;SDS011;44209;52.952;6.790;2023-05-29T01:47:31;19.73;;;3.93;;
58412;SDS011;44209;52.952;6.790;2023-05-29T01:49:58;18.83;;;4.20;;
58412;SDS011;44209;52.952;6.790;2023-05-29T01:52:24;15.97;;;4.53;;
58412;SDS011;44209;52.952;6.790;2023-05-29T01:54:50;19.17;;;4.17;;
58412;SDS011;44209;52.952;6.790;2023-05-29T01:57:16;18.93;;;5.00;;
58412;SDS011;44209;52.952;6.790;2023-05-29T01:59:42;16.40;;;4.47;;
58412;SDS011;44209;52.952;6.790;2023-05-29T02:02:08;18.37;;;4.17;;
58412;SDS011;44209;52.952;6.790;2023-05-29T02:04:34;15.00;;;4.10;;
58412;SDS011;44209;52.952;6.790;2023-05-29T02:06:59;15.63;;;4.00;;
58412;SDS011;44209;52.952;6.790;2023-05-29T02:09:25;20.17;;;4.27;;
58412;SDS011;44209;52.952;6.790;2023-05-29T02:11:51;17.37;;;4.17;;
58412;SDS011;44209;52.952;6.790;2023-05-29T02:14:17;19.93;;;4.50;;
58412;SDS011;44209;52.952;6.790;2023-05-29T02:16:43;20.37;;;4.73;;
58412;SDS011;44209;52.952;6.790;2023-05-29T02:19:09;13.83;;;3.73;;
58412;SDS011;44209;52.952;6.790;2023-05-29T02:21:39;22.23;;;5.10;;
58412;SDS011;44209;52.952;6.790;2023-05-29T02:24:07;14.05;;;4.35;;
58412;SDS011;44209;52.952;6.790;2023-05-29T02:26:33;15.47;;;4.57;;
58412;SDS011;44209;52.952;6.790;2023-05-29T02:29:02;18.10;;;4.53;;
58412;SDS011;44209;52.952;6.790;2023-05-29T02:31:28;18.23;;;4.50;;
58412;SDS011;44209;52.952;6.790;2023-05-29T02:33:53;12.73;;;4.10;;
58412;SDS011;44209;52.952;6.790;2023-05-29T02:36:19;19.87;;;4.33;;
58412;SDS011;44209;52.952;6.790;2023-05-29T02:38:45;18.97;;;4.13;;
58412;SDS011;44209;52.952;6.790;2023-05-29T02:41:11;16.30;;;4.20;;
58412;SDS011;44209;52.952;6.790;2023-05-29T02:43:36;15.53;;;4.23;;
58412;SDS011;44209;52.952;6.790;2023-05-29T02:46:02;21.80;;;4.60;;
58412;SDS011;44209;52.952;6.790;2023-05-29T02:48:28;17.37;;;4.83;;
58412;SDS011;44209;52.952;6.790;2023-05-29T02:50:54;18.83;;;4.47;;
58412;SDS011;44209;52.952;6.790;2023-05-29T02:53:20;14.37;;;4.57;;
58412;SDS011;44209;52.952;6.790;2023-05-29T02:55:46;18.67;;;4.70;;
58412;SDS011;44209;52.952;6.790;2023-05-29T02:58:12;17.53;;;4.37;;
58412;SDS011;44209;52.952;6.790;2023-05-29T03:00:37;20.97;;;4.80;;
58412;SDS011;44209;52.952;6.790;2023-05-29T03:03:03;12.67;;;4.03;;
58412;SDS011;44209;52.952;6.790;2023-05-29T03:05:29;15.37;;;4.17;;
58412;SDS011;44209;52.952;6.790;2023-05-29T03:07:55;17.43;;;4.30;;
58412;SDS011;44209;52.952;6.790;2023-05-29T03:10:21;17.93;;;4.13;;
58412;SDS011;44209;52.952;6.790;2023-05-29T03:12:47;14.80;;;4.20;;
58412;SDS011;44209;52.952;6.790;2023-05-29T03:15:13;17.83;;;4.40;;
58412;SDS011;44209;52.952;6.790;2023-05-29T03:17:39;16.77;;;3.90;;
58412;SDS011;44209;52.952;6.790;2023-05-29T03:20:05;18.30;;;5.20;;
58412;SDS011;44209;52.952;6.790;2023-05-29T03:22:33;15.07;;;4.30;;
58412;SDS011;44209;52.952;6.790;2023-05-29T03:25:02;20.20;;;5.20;;
58412;SDS011;44209;52.952;6.790;2023-05-29T03:27:29;15.03;;;4.20;;
58412;SDS011;44209;52.952;6.790;2023-05-29T03:29:55;15.80;;;4.27;;
58412;SDS011;44209;52.952;6.790;2023-05-29T03:32:23;17.63;;;4.63;;
58412;SDS011;44209;52.952;6.790;2023-05-29T03:34:48;20.33;;;4.40;;
58412;SDS011;44209;52.952;6.790;2023-05-29T03:37:14;16.10;;;4.03;;
58412;SDS011;44209;52.952;6.790;2023-05-29T03:39:40;22.27;;;4.63;;
58412;SDS011;44209;52.952;6.790;2023-05-29T03:42:05;19.60;;;4.80;;
58412;SDS011;44209;52.952;6.790;2023-05-29T03:44:31;17.60;;;4.50;;
58412;SDS011;44209;52.952;6.790;2023-05-29T03:46:57;20.73;;;4.17;;
58412;SDS011;44209;52.952;6.790;2023-05-29T03:49:23;18.93;;;3.87;;
58412;SDS011;44209;52.952;6.790;2023-05-29T03:51:49;18.17;;;4.43;;
58412;SDS011;44209;52.952;6.790;2023-05-29T03:54:15;20.07;;;4.37;;
58412;SDS011;44209;52.952;6.790;2023-05-29T03:56:41;22.37;;;4.50;;
58412;SDS011;44209;52.952;6.790;2023-05-29T03:59:06;15.50;;;4.53;;
58412;SDS011;44209;52.952;6.790;2023-05-29T04:01:32;16.23;;;4.30;;
58412;SDS011;44209;52.952;6.790;2023-05-29T04:03:58;14.23;;;4.17;;
58412;SDS011;44209;52.952;6.790;2023-05-29T04:06:24;17.77;;;3.80;;
58412;SDS011;44209;52.952;6.790;2023-05-29T04:08:49;15.80;;;3.83;;
58412;SDS011;44209;52.952;6.790;2023-05-29T04:11:15;14.97;;;4.23;;
58412;SDS011;44209;52.952;6.790;2023-05-29T04:13:41;18.07;;;3.97;;
58412;SDS011;44209;52.952;6.790;2023-05-29T04:16:07;17.23;;;4.10;;
58412;SDS011;44209;52.952;6.790;2023-05-29T04:18:32;20.27;;;4.87;;
58412;SDS011;44209;52.952;6.790;2023-05-29T04:20:58;14.57;;;4.20;;
58412;SDS011;44209;52.952;6.790;2023-05-29T04:23:24;13.83;;;4.40;;
58412;SDS011;44209;52.952;6.790;2023-05-29T04:25:50;12.27;;;4.20;;
58412;SDS011;44209;52.952;6.790;2023-05-29T04:28:16;16.53;;;4.30;;
58412;SDS011;44209;52.952;6.790;2023-05-29T04:30:42;22.40;;;4.47;;
58412;SDS011;44209;52.952;6.790;2023-05-29T04:33:08;19.67;;;4.40;;
58412;SDS011;44209;52.952;6.790;2023-05-29T04:35:37;18.07;;;4.40;;
58412;SDS011;44209;52.952;6.790;2023-05-29T04:38:03;11.23;;;4.27;;
58412;SDS011;44209;52.952;6.790;2023-05-29T04:40:30;11.50;;;4.10;;
58412;SDS011;44209;52.952;6.790;2023-05-29T04:42:56;13.13;;;4.30;;
58412;SDS011;44209;52.952;6.790;2023-05-29T04:45:25;14.27;;;4.10;;
58412;SDS011;44209;52.952;6.790;2023-05-29T04:47:51;13.00;;;4.47;;
58412;SDS011;44209;52.952;6.790;2023-05-29T04:50:18;13.83;;;4.10;;
58412;SDS011;44209;52.952;6.790;2023-05-29T04:52:44;15.43;;;4.57;;
58412;SDS011;44209;52.952;6.790;2023-05-29T04:55:10;18.57;;;4.03;;
58412;SDS011;44209;52.952;6.790;2023-05-29T04:57:35;19.50;;;4.37;;
58412;SDS011;44209;52.952;6.790;2023-05-29T05:00:02;14.17;;;3.73;;
58412;SDS011;44209;52.952;6.790;2023-05-29T05:02:32;15.30;;;4.13;;
58412;SDS011;44209;52.952;6.790;2023-05-29T05:04:58;18.50;;;4.37;;
58412;SDS011;44209;52.952;6.790;2023-05-29T05:07:24;13.33;;;4.07;;
58412;SDS011;44209;52.952;6.790;2023-05-29T05:09:50;13.73;;;3.90;;
58412;SDS011;44209;52.952;6.790;2023-05-29T05:12:16;15.50;;;4.00;;
58412;SDS011;44209;52.952;6.790;2023-05-29T05:14:41;13.50;;;3.80;;
58412;SDS011;44209;52.952;6.790;2023-05-29T05:17:07;17.00;;;4.90;;
58412;SDS011;44209;52.952;6.790;2023-05-29T05:19:33;11.93;;;4.20;;
58412;SDS011;44209;52.952;6.790;2023-05-29T05:21:58;19.57;;;4.53;;
58412;SDS011;44209;52.952;6.790;2023-05-29T05:24:24;8.93;;;3.37;;
58412;SDS011;44209;52.952;6.790;2023-05-29T05:26:50;15.93;;;3.73;;
58412;SDS011;44209;52.952;6.790;2023-05-29T05:29:15;14.43;;;4.00;;
58412;SDS011;44209;52.952;6.790;2023-05-29T05:31:41;17.20;;;3.93;;
58412;SDS011;44209;52.952;6.790;2023-05-29T05:34:07;16.00;;;4.07;;
58412;SDS011;44209;52.952;6.790;2023-05-29T05:36:32;14.13;;;4.00;;
58412;SDS011;44209;52.952;6.790;2023-05-29T05:38:58;15.47;;;4.07;;
58412;SDS011;44209;52.952;6.790;2023-05-29T05:41:24;13.33;;;3.80;;
58412;SDS011;44209;52.952;6.790;2023-05-29T05:43:50;14.93;;;4.03;;
58412;SDS011;44209;52.952;6.790;2023-05-29T05:46:15;10.53;;;3.80;;
58412;SDS011;44209;52.952;6.790;2023-05-29T05:48:42;13.87;;;3.60;;
58412;SDS011;44209;52.952;6.790;2023-05-29T05:51:08;14.17;;;3.60;;
58412;SDS011;44209;52.952;6.790;2023-05-29T05:53:35;15.03;;;4.23;;
58412;SDS011;44209;52.952;6.790;2023-05-29T05:56:01;13.70;;;4.17;;
58412;SDS011;44209;52.952;6.790;2023-05-29T05:58:27;14.63;;;3.70;;
58412;SDS011;44209;52.952;6.790;2023-05-29T06:00:52;13.40;;;3.70;;
58412;SDS011;44209;52.952;6.790;2023-05-29T06:03:18;14.03;;;4.47;;
58412;SDS011;44209;52.952;6.790;2023-05-29T06:05:44;14.03;;;3.93;;
58412;SDS011;44209;52.952;6.790;2023-05-29T06:08:10;19.23;;;3.90;;
58412;SDS011;44209;52.952;6.790;2023-05-29T06:10:35;12.77;;;3.60;;
58412;SDS011;44209;52.952;6.790;2023-05-29T06:13:01;19.27;;;4.37;;
58412;SDS011;44209;52.952;6.790;2023-05-29T06:15:27;14.43;;;4.13;;
58412;SDS011;44209;52.952;6.790;2023-05-29T06:17:53;16.17;;;4.57;;
58412;SDS011;44209;52.952;6.790;2023-05-29T06:20:20;9.30;;;3.80;;
58412;SDS011;44209;52.952;6.790;2023-05-29T06:22:46;15.87;;;4.30;;
58412;SDS011;44209;52.952;6.790;2023-05-29T06:25:18;14.67;;;4.07;;
58412;SDS011;44209;52.952;6.790;2023-05-29T06:27:45;16.20;;;3.90;;
58412;SDS011;44209;52.952;6.790;2023-05-29T06:30:11;19.27;;;4.33;;
58412;SDS011;44209;52.952;6.790;2023-05-29T06:32:37;16.30;;;5.57;;
58412;SDS011;44209;52.952;6.790;2023-05-29T06:35:03;16.67;;;4.60;;
58412;SDS011;44209;52.952;6.790;2023-05-29T06:37:31;14.83;;;4.20;;
58412;SDS011;44209;52.952;6.790;2023-05-29T06:39:57;15.60;;;3.77;;
58412;SDS011;44209;52.952;6.790;2023-05-29T06:42:23;20.17;;;4.30;;
58412;SDS011;44209;52.952;6.790;2023-05-29T06:44:48;13.10;;;4.17;;
58412;SDS011;44209;52.952;6.790;2023-05-29T06:47:14;16.13;;;4.27;;
58412;SDS011;44209;52.952;6.790;2023-05-29T06:49:40;16.33;;;4.43;;
58412;SDS011;44209;52.952;6.790;2023-05-29T06:52:05;18.93;;;4.40;;
58412;SDS011;44209;52.952;6.790;2023-05-29T06:54:31;17.13;;;4.73;;
58412;SDS011;44209;52.952;6.790;2023-05-29T06:56:57;13.83;;;4.13;;
58412;SDS011;44209;52.952;6.790;2023-05-29T06:59:22;14.93;;;4.10;;
58412;SDS011;44209;52.952;6.790;2023-05-29T07:01:48;20.17;;;4.60;;
58412;SDS011;44209;52.952;6.790;2023-05-29T07:04:14;17.63;;;4.60;;
58412;SDS011;44209;52.952;6.790;2023-05-29T07:06:40;17.50;;;4.60;;
58412;SDS011;44209;52.952;6.790;2023-05-29T07:09:06;23.47;;;4.83;;
58412;SDS011;44209;52.952;6.790;2023-05-29T07:11:32;17.03;;;4.73;;
58412;SDS011;44209;52.952;6.790;2023-05-29T07:13:58;25.93;;;5.00;;
58412;SDS011;44209;52.952;6.790;2023-05-29T07:16:23;20.03;;;5.17;;
58412;SDS011;44209;52.952;6.790;2023-05-29T07:18:50;15.97;;;5.13;;
58412;SDS011;44209;52.952;6.790;2023-05-29T07:21:16;20.10;;;5.70;;
58412;SDS011;44209;52.952;6.790;2023-05-29T07:23:43;17.33;;;4.53;;
58412;SDS011;44209;52.952;6.790;2023-05-29T07:26:08;14.93;;;4.43;;
58412;SDS011;44209;52.952;6.790;2023-05-29T07:28:34;17.80;;;5.67;;
58412;SDS011;44209;52.952;6.790;2023-05-29T07:31:00;22.23;;;4.13;;
58412;SDS011;44209;52.952;6.790;2023-05-29T07:33:25;16.00;;;4.70;;
58412;SDS011;44209;52.952;6.790;2023-05-29T07:35:51;15.88;;;4.35;;
58412;SDS011;44209;52.952;6.790;2023-05-29T07:38:17;19.30;;;4.57;;
58412;SDS011;44209;52.952;6.790;2023-05-29T07:40:42;19.77;;;4.53;;
58412;SDS011;44209;52.952;6.790;2023-05-29T07:43:08;23.55;;;4.50;;
58412;SDS011;44209;52.952;6.790;2023-05-29T07:45:34;15.47;;;4.47;;
58412;SDS011;44209;52.952;6.790;2023-05-29T07:48:00;17.37;;;4.60;;
58412;SDS011;44209;52.952;6.790;2023-05-29T07:50:25;13.20;;;3.78;;
58412;SDS011;44209;52.952;6.790;2023-05-29T07:52:51;20.23;;;5.05;;
58412;SDS011;44209;52.952;6.790;2023-05-29T07:55:17;16.02;;;4.10;;
58412;SDS011;44209;52.952;6.790;2023-05-29T07:57:43;12.95;;;4.10;;
58412;SDS011;44209;52.952;6.790;2023-05-29T08:00:09;16.45;;;4.55;;
58412;SDS011;44209;52.952;6.790;2023-05-29T08:02:38;14.73;;;4.13;;
58412;SDS011;44209;52.952;6.790;2023-05-29T08:05:04;15.55;;;4.97;;
58412;SDS011;44209;52.952;6.790;2023-05-29T08:07:30;11.98;;;4.00;;
58412;SDS011;44209;52.952;6.790;2023-05-29T08:09:57;14.45;;;4.55;;
58412;SDS011;44209;52.952;6.790;2023-05-29T08:12:22;16.30;;;3.92;;
58412;SDS011;44209;52.952;6.790;2023-05-29T08:14:48;12.25;;;4.03;;
58412;SDS011;44209;52.952;6.790;2023-05-29T08:17:14;14.98;;;4.22;;
58412;SDS011;44209;52.952;6.790;2023-05-29T08:19:40;20.33;;;4.72;;
58412;SDS011;44209;52.952;6.790;2023-05-29T08:22:06;15.88;;;4.68;;
58412;SDS011;44209;52.952;6.790;2023-05-29T08:24:31;15.00;;;4.22;;
58412;SDS011;44209;52.952;6.790;2023-05-29T08:26:57;18.45;;;4.53;;
58412;SDS011;44209;52.952;6.790;2023-05-29T08:29:23;16.30;;;4.20;;
58412;SDS011;44209;52.952;6.790;2023-05-29T08:31:49;19.77;;;4.90;;
58412;SDS011;44209;52.952;6.790;2023-05-29T08:34:14;16.58;;;4.15;;
58412;SDS011;44209;52.952;6.790;2023-05-29T08:36:40;15.30;;;4.30;;
58412;SDS011;44209;52.952;6.790;2023-05-29T08:39:06;14.20;;;3.92;;
58412;SDS011;44209;52.952;6.790;2023-05-29T08:41:44;18.50;;;4.00;;
58412;SDS011;44209;52.952;6.790;2023-05-29T08:44:26;17.30;;;4.22;;
58412;SDS011;44209;52.952;6.790;2023-05-29T08:46:55;12.88;;;3.78;;
58412;SDS011;44209;52.952;6.790;2023-05-29T08:49:21;14.93;;;4.00;;
58412;SDS011;44209;52.952;6.790;2023-05-29T08:51:49;16.58;;;4.07;;
58412;SDS011;44209;52.952;6.790;2023-05-29T08:54:20;17.35;;;4.47;;
58412;SDS011;44209;52.952;6.790;2023-05-29T08:56:46;17.20;;;4.18;;
58412;SDS011;44209;52.952;6.790;2023-05-29T08:59:11;22.35;;;4.88;;
58412;SDS011;44209;52.952;6.790;2023-05-29T09:01:38;14.75;;;4.70;;
58412;SDS011;44209;52.952;6.790;2023-05-29T09:04:04;16.33;;;4.25;;
58412;SDS011;44209;52.952;6.790;2023-05-29T09:06:30;13.73;;;3.80;;
58412;SDS011;44209;52.952;6.790;2023-05-29T09:08:56;14.48;;;3.97;;
58412;SDS011;44209;52.952;6.790;2023-05-29T09:11:22;16.15;;;3.92;;
58412;SDS011;44209;52.952;6.790;2023-05-29T09:13:48;15.30;;;4.30;;
58412;SDS011;44209;52.952;6.790;2023-05-29T09:16:17;17.48;;;4.60;;
58412;SDS011;44209;52.952;6.790;2023-05-29T09:18:43;20.48;;;4.60;;
58412;SDS011;44209;52.952;6.790;2023-05-29T09:21:24;13.48;;;3.97;;
58412;SDS011;44209;52.952;6.790;2023-05-29T09:23:52;18.40;;;4.97;;
58412;SDS011;44209;52.952;6.790;2023-05-29T09:26:20;23.65;;;4.78;;
58412;SDS011;44209;52.952;6.790;2023-05-29T09:28:49;15.52;;;4.00;;
58412;SDS011;44209;52.952;6.790;2023-05-29T09:31:15;16.55;;;3.78;;
58412;SDS011;44209;52.952;6.790;2023-05-29T09:33:49;18.07;;;4.67;;
58412;SDS011;44209;52.952;6.790;2023-05-29T09:36:19;14.63;;;4.07;;
58412;SDS011;44209;52.952;6.790;2023-05-29T09:38:47;19.10;;;4.55;;
58412;SDS011;44209;52.952;6.790;2023-05-29T09:41:13;16.02;;;4.60;;
58412;SDS011;44209;52.952;6.790;2023-05-29T09:43:45;15.82;;;4.75;;
58412;SDS011;44209;52.952;6.790;2023-05-29T09:46:12;12.93;;;3.90;;
58412;SDS011;44209;52.952;6.790;2023-05-29T09:48:42;13.50;;;3.83;;
58412;SDS011;44209;52.952;6.790;2023-05-29T09:51:19;13.73;;;3.58;;
58412;SDS011;44209;52.952;6.790;2023-05-29T09:53:48;11.45;;;3.78;;
58412;SDS011;44209;52.952;6.790;2023-05-29T09:56:15;16.92;;;4.13;;
58412;SDS011;44209;52.952;6.790;2023-05-29T09:58:43;16.73;;;4.38;;
58412;SDS011;44209;52.952;6.790;2023-05-29T10:01:16;16.27;;;3.53;;
58412;SDS011;44209;52.952;6.790;2023-05-29T10:03:42;13.45;;;3.95;;
58412;SDS011;44209;52.952;6.790;2023-05-29T10:06:07;13.80;;;3.72;;
58412;SDS011;44209;52.952;6.790;2023-05-29T10:08:42;15.27;;;4.20;;
58412;SDS011;44209;52.952;6.790;2023-05-29T10:11:20;15.20;;;4.43;;
58412;SDS011;44209;52.952;6.790;2023-05-29T10:13:51;15.80;;;4.53;;
58412;SDS011;44209;52.952;6.790;2023-05-29T10:16:22;12.15;;;4.55;;
58412;SDS011;44209;52.952;6.790;2023-05-29T10:18:53;22.33;;;4.43;;
58412;SDS011;44209;52.952;6.790;2023-05-29T10:21:21;15.02;;;3.90;;
58412;SDS011;44209;52.952;6.790;2023-05-29T10:23:49;13.00;;;4.10;;
58412;SDS011;44209;52.952;6.790;2023-05-29T10:26:19;15.38;;;3.83;;
58412;SDS011;44209;52.952;6.790;2023-05-29T10:28:54;13.75;;;3.90;;
58412;SDS011;44209;52.952;6.790;2023-05-29T10:31:26;14.50;;;4.45;;
58412;SDS011;44209;52.952;6.790;2023-05-29T10:37:05;13.45;;;3.95;;
58412;SDS011;44209;52.952;6.790;2023-05-29T10:39:43;16.08;;;4.07;;
58412;SDS011;44209;52.952;6.790;2023-05-29T10:45:08;16.75;;;4.22;;
58412;SDS011;44209;52.952;6.790;2023-05-29T10:47:34;16.58;;;4.25;;
58412;SDS011;44209;52.952;6.790;2023-05-29T10:50:00;15.77;;;4.85;;
58412;SDS011;44209;52.952;6.790;2023-05-29T10:52:30;16.05;;;4.72;;
58412;SDS011;44209;52.952;6.790;2023-05-29T10:54:56;12.32;;;4.20;;
58412;SDS011;44209;52.952;6.790;2023-05-29T10:57:23;11.63;;;3.75;;
58412;SDS011;44209;52.952;6.790;2023-05-29T11:00:08;13.82;;;3.95;;
58412;SDS011;44209;52.952;6.790;2023-05-29T11:02:39;14.82;;;4.30;;
58412;SDS011;44209;52.952;6.790;2023-05-29T11:05:18;11.00;;;3.58;;
58412;SDS011;44209;52.952;6.790;2023-05-29T11:07:56;15.73;;;4.43;;
58412;SDS011;44209;52.952;6.790;2023-05-29T11:10:41;17.10;;;4.50;;
58412;SDS011;44209;52.952;6.790;2023-05-29T11:13:30;14.70;;;4.28;;
58412;SDS011;44209;52.952;6.790;2023-05-29T11:18:44;11.10;;;3.58;;
58412;SDS011;44209;52.952;6.790;2023-05-29T11:23:58;18.05;;;4.25;;
58412;SDS011;44209;52.952;6.790;2023-05-29T11:26:28;14.48;;;3.70;;
58412;SDS011;44209;52.952;6.790;2023-05-29T11:29:04;11.18;;;3.65;;
58412;SDS011;44209;52.952;6.790;2023-05-29T11:31:36;12.93;;;4.07;;
58412;SDS011;44209;52.952;6.790;2023-05-29T11:34:04;13.07;;;3.70;;
58412;SDS011;44209;52.952;6.790;2023-05-29T11:36:32;13.85;;;3.20;;
58412;SDS011;44209;52.952;6.790;2023-05-29T11:38:58;16.80;;;3.85;;
58412;SDS011;44209;52.952;6.790;2023-05-29T11:41:25;10.65;;;3.78;;
58412;SDS011;44209;52.952;6.790;2023-05-29T11:43:58;11.65;;;3.80;;
58412;SDS011;44209;52.952;6.790;2023-05-29T11:46:26;17.13;;;4.13;;
58412;SDS011;44209;52.952;6.790;2023-05-29T11:48:53;16.67;;;3.88;;
58412;SDS011;44209;52.952;6.790;2023-05-29T11:51:19;13.63;;;3.50;;
58412;SDS011;44209;52.952;6.790;2023-05-29T11:53:46;12.00;;;3.30;;
58412;SDS011;44209;52.952;6.790;2023-05-29T11:56:13;16.48;;;3.80;;
58412;SDS011;44209;52.952;6.790;2023-05-29T11:58:39;11.25;;;3.65;;
58412;SDS011;44209;52.952;6.790;2023-05-29T12:01:06;12.95;;;3.47;;
58412;SDS011;44209;52.952;6.790;2023-05-29T12:03:41;13.60;;;3.60;;
58412;SDS011;44209;52.952;6.790;2023-05-29T12:06:08;10.43;;;3.13;;
58412;SDS011;44209;52.952;6.790;2023-05-29T12:08:35;13.32;;;3.30;;
58412;SDS011;44209;52.952;6.790;2023-05-29T12:11:02;10.52;;;3.30;;
58412;SDS011;44209;52.952;6.790;2023-05-29T12:13:28;11.13;;;3.47;;
58412;SDS011;44209;52.952;6.790;2023-05-29T12:15:56;13.40;;;3.38;;
58412;SDS011;44209;52.952;6.790;2023-05-29T12:18:23;11.18;;;3.47;;
58412;SDS011;44209;52.952;6.790;2023-05-29T12:20:50;16.13;;;4.13;;
58412;SDS011;44209;52.952;6.790;2023-05-29T12:23:17;11.98;;;3.90;;
58412;SDS011;44209;52.952;6.790;2023-05-29T12:25:47;13.55;;;3.80;;
58412;SDS011;44209;52.952;6.790;2023-05-29T12:28:16;11.32;;;3.90;;
58412;SDS011;44209;52.952;6.790;2023-05-29T12:30:46;11.93;;;3.53;;
58412;SDS011;44209;52.952;6.790;2023-05-29T12:33:25;10.43;;;3.03;;
58412;SDS011;44209;52.952;6.790;2023-05-29T12:36:01;13.30;;;3.92;;
58412;SDS011;44209;52.952;6.790;2023-05-29T12:38:31;14.40;;;3.80;;
58412;SDS011;44209;52.952;6.790;2023-05-29T12:40:57;15.05;;;4.03;;
58412;SDS011;44209;52.952;6.790;2023-05-29T12:43:23;12.52;;;4.03;;
58412;SDS011;44209;52.952;6.790;2023-05-29T12:45:53;12.40;;;3.80;;
58412;SDS011;44209;52.952;6.790;2023-05-29T12:48:25;7.93;;;3.63;;
58412;SDS011;44209;52.952;6.790;2023-05-29T12:50:51;15.32;;;4.22;;
58412;SDS011;44209;52.952;6.790;2023-05-29T12:53:17;15.15;;;3.28;;
58412;SDS011;44209;52.952;6.790;2023-05-29T12:55:43;11.15;;;3.08;;
58412;SDS011;44209;52.952;6.790;2023-05-29T12:58:11;10.45;;;3.55;;
58412;SDS011;44209;52.952;6.790;2023-05-29T13:00:38;11.60;;;3.72;;
58412;SDS011;44209;52.952;6.790;2023-05-29T13:03:05;10.77;;;2.83;;
58412;SDS011;44209;52.952;6.790;2023-05-29T13:05:32;9.95;;;3.70;;
58412;SDS011;44209;52.952;6.790;2023-05-29T13:07:58;14.77;;;3.67;;
58412;SDS011;44209;52.952;6.790;2023-05-29T13:10:24;14.77;;;3.63;;
58412;SDS011;44209;52.952;6.790;2023-05-29T13:12:51;13.63;;;3.80;;
58412;SDS011;44209;52.952;6.790;2023-05-29T13:15:20;9.60;;;3.83;;
58412;SDS011;44209;52.952;6.790;2023-05-29T13:17:46;15.43;;;4.07;;
58412;SDS011;44209;52.952;6.790;2023-05-29T13:20:12;13.48;;;3.15;;
58412;SDS011;44209;52.952;6.790;2023-05-29T13:22:39;10.02;;;3.08;;
58412;SDS011;44209;52.952;6.790;2023-05-29T13:25:06;11.65;;;3.05;;
58412;SDS011;44209;52.952;6.790;2023-05-29T13:27:34;9.95;;;2.85;;
58412;SDS011;44209;52.952;6.790;2023-05-29T13:30:02;10.57;;;3.45;;
58412;SDS011;44209;52.952;6.790;2023-05-29T13:32:29;15.30;;;4.15;;
58412;SDS011;44209;52.952;6.790;2023-05-29T13:34:55;12.25;;;3.72;;
58412;SDS011;44209;52.952;6.790;2023-05-29T13:37:21;11.75;;;3.38;;
58412;SDS011;44209;52.952;6.790;2023-05-29T13:39:47;13.55;;;3.17;;
58412;SDS011;44209;52.952;6.790;2023-05-29T13:42:13;12.57;;;3.53;;
58412;SDS011;44209;52.952;6.790;2023-05-29T13:44:39;11.95;;;3.42;;
58412;SDS011;44209;52.952;6.790;2023-05-29T13:47:05;8.73;;;3.00;;
58412;SDS011;44209;52.952;6.790;2023-05-29T13:49:31;8.88;;;3.03;;
58412;SDS011;44209;52.952;6.790;2023-05-29T13:51:57;6.63;;;2.55;;
58412;SDS011;44209;52.952;6.790;2023-05-29T13:54:23;9.55;;;2.90;;
58412;SDS011;44209;52.952;6.790;2023-05-29T13:56:48;9.70;;;2.83;;
58412;SDS011;44209;52.952;6.790;2023-05-29T13:59:14;11.32;;;2.92;;
58412;SDS011;44209;52.952;6.790;2023-05-29T14:01:40;7.07;;;2.53;;
58412;SDS011;44209;52.952;6.790;2023-05-29T14:04:06;11.32;;;3.92;;
58412;SDS011;44209;52.952;6.790;2023-05-29T14:06:32;10.25;;;2.92;;
58412;SDS011;44209;52.952;6.790;2023-05-29T14:08:58;9.02;;;3.00;;
58412;SDS011;44209;52.952;6.790;2023-05-29T14:11:24;12.60;;;3.20;;
58412;SDS011;44209;52.952;6.790;2023-05-29T14:13:52;11.90;;;3.10;;
58412;SDS011;44209;52.952;6.790;2023-05-29T14:16:17;13.60;;;2.83;;
58412;SDS011;44209;52.952;6.790;2023-05-29T14:18:43;8.77;;;2.72;;
58412;SDS011;44209;52.952;6.790;2023-05-29T14:21:09;8.55;;;2.97;;
58412;SDS011;44209;52.952;6.790;2023-05-29T14:23:36;8.30;;;2.90;;
58412;SDS011;44209;52.952;6.790;2023-05-29T14:26:03;9.55;;;2.70;;
58412;SDS011;44209;52.952;6.790;2023-05-29T14:28:29;8.65;;;2.67;;
58412;SDS011;44209;52.952;6.790;2023-05-29T14:30:54;6.50;;;2.38;;
58412;SDS011;44209;52.952;6.790;2023-05-29T14:33:20;10.32;;;2.67;;
58412;SDS011;44209;52.952;6.790;2023-05-29T14:35:46;8.35;;;2.72;;
58412;SDS011;44209;52.952;6.790;2023-05-29T14:38:11;11.63;;;2.90;;
58412;SDS011;44209;52.952;6.790;2023-05-29T14:40:37;7.90;;;2.60;;
58412;SDS011;44209;52.952;6.790;2023-05-29T14:43:03;9.85;;;2.70;;
58412;SDS011;44209;52.952;6.790;2023-05-29T14:45:29;7.80;;;2.60;;
58412;SDS011;44209;52.952;6.790;2023-05-29T14:47:55;8.68;;;2.42;;
58412;SDS011;44209;52.952;6.790;2023-05-29T14:50:21;11.60;;;2.75;;